sensor_id;sensor_type;location;lat;lon;timestamp;pressure;altitude;pressure_sealevel;temperature;humidity
29247;BME280;16272;48.188;9.964;2023-02-10T00:00:04;97547.72;;;-4.78;75.61
29247;BME280;16272;48.188;9.964;2023-02-10T00:02:29;97552.88;;;-4.75;76.44
29247;BME280;16272;48.188;9.964;2023-02-10T00:04:55;97552.75;;;-4.66;73.02
29247;BME280;16272;48.188;9.964;2023-02-10T00:07:20;97551.31;;;-4.94;75.87
29247;BME280;16272;48.188;9.964;2023-02-10T00:09:46;97561.75;;;-5.04;75.74
29247;BME280;16272;48.188;9.964;2023-02-10T00:12:11;97561.88;;;-5.13;76.88
29247;BME280;16272;48.188;9.964;2023-02-10T00:14:37;97561.91;;;-5.19;77.29
29247;BME280;16272;48.188;9.964;2023-02-10T00:17:03;97558.50;;;-5.27;77.53
29247;BME280;16272;48.188;9.964;2023-02-10T00:19:29;97558.50;;;-5.27;77.98
29247;BME280;16272;48.188;9.964;2023-02-10T00:21:56;97565.44;;;-5.26;79.52
29247;BME280;16272;48.188;9.964;2023-02-10T00:24:22;97554.28;;;-5.39;80.03
29247;BME280;16272;48.188;9.964;2023-02-10T00:26:48;97559.31;;;-5.19;79.47
29247;BME280;16272;48.188;9.964;2023-02-10T00:29:13;97560.09;;;-5.08;77.94
29247;BME280;16272;48.188;9.964;2023-02-10T00:31:39;97560.00;;;-4.99;77.80
29247;BME280;16272;48.188;9.964;2023-02-10T00:34:05;97549.13;;;-5.42;78.67
29247;BME280;16272;48.188;9.964;2023-02-10T00:36:30;97561.88;;;-5.16;78.95
29247;BME280;16272;48.188;9.964;2023-02-10T00:38:56;97565.09;;;-4.89;76.49
29247;BME280;16272;48.188;9.964;2023-02-10T00:41:22;97562.97;;;-5.48;79.26
29247;BME280;16272;48.188;9.964;2023-02-10T00:43:49;97573.31;;;-5.46;79.06
29247;BME280;16272;48.188;9.964;2023-02-10T00:46:17;97581.97;;;-5.46;78.72
29247;BME280;16272;48.188;9.964;2023-02-10T00:48:43;97581.09;;;-5.48;79.84
29247;BME280;16272;48.188;9.964;2023-02-10T00:51:09;97573.94;;;-5.15;77.92
29247;BME280;16272;48.188;9.964;2023-02-10T00:53:35;97567.97;;;-5.23;76.62
29247;BME280;16272;48.188;9.964;2023-02-10T00:56:01;97570.44;;;-5.08;76.22
29247;BME280;16272;48.188;9.964;2023-02-10T00:58:26;97575.69;;;-5.17;76.31
29247;BME280;16272;48.188;9.964;2023-02-10T01:00:53;97581.16;;;-5.54;79.02
29247;BME280;16272;48.188;9.964;2023-02-10T01:03:20;97575.69;;;-5.17;78.33
29247;BME280;16272;48.188;9.964;2023-02-10T01:05:45;97583.22;;;-4.88;75.57
29247;BME280;16272;48.188;9.964;2023-02-10T01:08:11;97589.75;;;-5.52;77.53
29247;BME280;16272;48.188;9.964;2023-02-10T01:10:37;97584.44;;;-5.33;78.31
29247;BME280;16272;48.188;9.964;2023-02-10T01:13:03;97582.81;;;-5.47;78.35
29247;BME280;16272;48.188;9.964;2023-02-10T01:15:30;97584.09;;;-4.90;75.32
29247;BME280;16272;48.188;9.964;2023-02-10T01:17:55;97585.84;;;-4.92;73.78
29247;BME280;16272;48.188;9.964;2023-02-10T01:20:21;97584.28;;;-5.10;74.72
29247;BME280;16272;48.188;9.964;2023-02-10T01:22:47;97585.19;;;-5.16;75.37
29247;BME280;16272;48.188;9.964;2023-02-10T01:25:12;97589.81;;;-5.63;77.43
29247;BME280;16272;48.188;9.964;2023-02-10T01:27:38;97593.03;;;-5.24;77.08
29247;BME280;16272;48.188;9.964;2023-02-10T01:30:03;97593.88;;;-5.25;73.91
29247;BME280;16272;48.188;9.964;2023-02-10T01:32:29;97603.34;;;-5.16;72.00
29247;BME280;16272;48.188;9.964;2023-02-10T01:34:54;97607.75;;;-5.30;74.41
29247;BME280;16272;48.188;9.964;2023-02-10T01:37:20;97603.56;;;-5.50;74.85
29247;BME280;16272;48.188;9.964;2023-02-10T01:39:45;97605.28;;;-5.49;75.12
29247;BME280;16272;48.188;9.964;2023-02-10T01:42:13;97612.09;;;-5.37;73.88
29247;BME280;16272;48.188;9.964;2023-02-10T01:47:04;97617.22;;;-5.26;73.72
29247;BME280;16272;48.188;9.964;2023-02-10T01:49:33;97610.28;;;-5.24;73.88
29247;BME280;16272;48.188;9.964;2023-02-10T01:52:03;97614.69;;;-5.37;74.11
29247;BME280;16272;48.188;9.964;2023-02-10T01:54:41;97612.09;;;-5.32;73.59
29247;BME280;16272;48.188;9.964;2023-02-10T01:57:08;97617.19;;;-5.23;73.80
29247;BME280;16272;48.188;9.964;2023-02-10T01:59:35;97618.22;;;-5.46;72.74
29247;BME280;16272;48.188;9.964;2023-02-10T02:02:02;97619.13;;;-5.59;73.46
29247;BME280;16272;48.188;9.964;2023-02-10T02:04:47;97613.94;;;-5.59;73.47
29247;BME280;16272;48.188;9.964;2023-02-10T02:07:14;97610.66;;;-5.92;75.00
29247;BME280;16272;48.188;9.964;2023-02-10T02:09:41;97609.03;;;-6.01;74.99
29247;BME280;16272;48.188;9.964;2023-02-10T02:12:17;97606.34;;;-5.88;74.51
29247;BME280;16272;48.188;9.964;2023-02-10T02:14:53;97612.41;;;-5.91;75.16
29247;BME280;16272;48.188;9.964;2023-02-10T02:20:23;97614.28;;;-6.21;76.26
29247;BME280;16272;48.188;9.964;2023-02-10T02:23:19;97609.13;;;-6.33;77.64
29247;BME280;16272;48.188;9.964;2023-02-10T02:28:43;97605.75;;;-6.57;79.93
29247;BME280;16272;48.188;9.964;2023-02-10T02:34:18;97614.06;;;-5.84;76.36
29247;BME280;16272;48.188;9.964;2023-02-10T02:36:53;97609.78;;;-5.80;76.10
29247;BME280;16272;48.188;9.964;2023-02-10T02:39:21;97617.69;;;-6.11;77.95
29247;BME280;16272;48.188;9.964;2023-02-10T02:41:59;97612.44;;;-6.00;77.25
29247;BME280;16272;48.188;9.964;2023-02-10T02:44:30;97612.38;;;-5.82;74.91
29247;BME280;16272;48.188;9.964;2023-02-10T02:47:12;97610.84;;;-6.23;77.78
29247;BME280;16272;48.188;9.964;2023-02-10T02:55:07;97599.59;;;-6.11;77.46
29247;BME280;16272;48.188;9.964;2023-02-10T02:57:54;97604.75;;;-6.16;77.58
29247;BME280;16272;48.188;9.964;2023-02-10T03:00:28;97605.69;;;-6.29;78.50
29247;BME280;16272;48.188;9.964;2023-02-10T03:03:19;97613.50;;;-6.68;81.90
29247;BME280;16272;48.188;9.964;2023-02-10T03:05:44;97602.31;;;-6.70;82.40
29247;BME280;16272;48.188;9.964;2023-02-10T03:08:10;97601.44;;;-6.59;81.55
29247;BME280;16272;48.188;9.964;2023-02-10T03:10:35;97597.88;;;-6.18;79.16
29247;BME280;16272;48.188;9.964;2023-02-10T03:13:01;97598.88;;;-6.70;81.17
29247;BME280;16272;48.188;9.964;2023-02-10T03:15:26;97595.41;;;-6.55;79.71
29247;BME280;16272;48.188;9.964;2023-02-10T03:17:51;97600.59;;;-6.66;81.42
29247;BME280;16272;48.188;9.964;2023-02-10T03:20:17;97593.72;;;-6.67;82.08
29247;BME280;16272;48.188;9.964;2023-02-10T03:22:43;97595.31;;;-6.24;79.08
29247;BME280;16272;48.188;9.964;2023-02-10T03:25:08;97593.50;;;-6.05;78.68
29247;BME280;16272;48.188;9.964;2023-02-10T03:27:34;97594.50;;;-6.40;79.74
29247;BME280;16272;48.188;9.964;2023-02-10T03:29:59;97601.47;;;-6.73;82.38
29247;BME280;16272;48.188;9.964;2023-02-10T03:32:24;97601.47;;;-6.70;82.29
29247;BME280;16272;48.188;9.964;2023-02-10T03:34:50;97600.59;;;-6.72;82.69
29247;BME280;16272;48.188;9.964;2023-02-10T03:37:15;97613.53;;;-6.78;82.66
29247;BME280;16272;48.188;9.964;2023-02-10T03:39:40;97619.56;;;-6.86;82.95
29247;BME280;16272;48.188;9.964;2023-02-10T03:42:06;97628.16;;;-6.62;81.93
29247;BME280;16272;48.188;9.964;2023-02-10T03:44:32;97626.38;;;-6.41;80.22
29247;BME280;16272;48.188;9.964;2023-02-10T03:46:57;97618.66;;;-6.49;80.28
29247;BME280;16272;48.188;9.964;2023-02-10T03:49:23;97619.47;;;-6.36;79.59
29247;BME280;16272;48.188;9.964;2023-02-10T03:51:48;97630.66;;;-6.25;78.56
29247;BME280;16272;48.188;9.964;2023-02-10T03:54:14;97638.44;;;-6.31;78.92
29247;BME280;16272;48.188;9.964;2023-02-10T03:56:39;97639.22;;;-6.01;78.81
29247;BME280;16272;48.188;9.964;2023-02-10T03:59:05;97639.06;;;-5.72;75.13
29247;BME280;16272;48.188;9.964;2023-02-10T04:01:31;97646.03;;;-5.86;75.91
29247;BME280;16272;48.188;9.964;2023-02-10T04:03:57;97639.81;;;-5.56;73.24
29247;BME280;16272;48.188;9.964;2023-02-10T04:06:22;97646.88;;;-5.89;74.07
29247;BME280;16272;48.188;9.964;2023-02-10T04:08:48;97639.34;;;-6.49;75.44
29247;BME280;16272;48.188;9.964;2023-02-10T04:11:14;97652.06;;;-5.95;74.83
29247;BME280;16272;48.188;9.964;2023-02-10T04:13:40;97653.78;;;-5.88;73.59
29247;BME280;16272;48.188;9.964;2023-02-10T04:16:14;97654.72;;;-6.00;74.09
29247;BME280;16272;48.188;9.964;2023-02-10T04:18:41;97649.59;;;-6.18;73.57
29247;BME280;16272;48.188;9.964;2023-02-10T04:21:08;97653.00;;;-5.99;72.75
29247;BME280;16272;48.188;9.964;2023-02-10T04:23:34;97646.88;;;-5.91;73.50
29247;BME280;16272;48.188;9.964;2023-02-10T04:26:00;97650.44;;;-6.12;73.39
29247;BME280;16272;48.188;9.964;2023-02-10T04:28:26;97649.59;;;-6.14;73.15
29247;BME280;16272;48.188;9.964;2023-02-10T04:30:53;97661.59;;;-5.99;72.11
29247;BME280;16272;48.188;9.964;2023-02-10T04:33:19;97656.56;;;-6.42;73.27
29247;BME280;16272;48.188;9.964;2023-02-10T04:35:47;97653.13;;;-6.44;74.00
29247;BME280;16272;48.188;9.964;2023-02-10T04:38:13;97658.25;;;-6.21;73.71
29247;BME280;16272;48.188;9.964;2023-02-10T04:40:38;97664.25;;;-6.13;73.06
29247;BME280;16272;48.188;9.964;2023-02-10T04:43:04;97668.63;;;-6.45;73.67
29247;BME280;16272;48.188;9.964;2023-02-10T04:45:30;97674.59;;;-6.25;73.18
29247;BME280;16272;48.188;9.964;2023-02-10T04:47:55;97662.56;;;-6.24;73.09
29247;BME280;16272;48.188;9.964;2023-02-10T04:50:21;97660.88;;;-6.39;74.02
29247;BME280;16272;48.188;9.964;2023-02-10T04:52:46;97659.09;;;-6.22;73.48
29247;BME280;16272;48.188;9.964;2023-02-10T04:55:11;97672.03;;;-6.26;72.60
29247;BME280;16272;48.188;9.964;2023-02-10T04:57:37;97669.47;;;-6.34;72.40
29247;BME280;16272;48.188;9.964;2023-02-10T05:00:03;97667.75;;;-6.41;72.31
29247;BME280;16272;48.188;9.964;2023-02-10T05:02:29;97662.59;;;-6.66;74.31
29247;BME280;16272;48.188;9.964;2023-02-10T05:04:54;97666.03;;;-6.64;74.33
29247;BME280;16272;48.188;9.964;2023-02-10T05:07:19;97660.03;;;-6.86;75.30
29247;BME280;16272;48.188;9.964;2023-02-10T05:09:44;97660.91;;;-6.70;73.76
29247;BME280;16272;48.188;9.964;2023-02-10T05:12:10;97672.94;;;-6.94;75.12
29247;BME280;16272;48.188;9.964;2023-02-10T05:14:35;97666.03;;;-7.12;76.16
29247;BME280;16272;48.188;9.964;2023-02-10T05:17:00;97667.72;;;-7.25;77.52
29247;BME280;16272;48.188;9.964;2023-02-10T05:19:26;97666.81;;;-7.56;79.23
29247;BME280;16272;48.188;9.964;2023-02-10T05:21:51;97665.97;;;-7.50;80.03
29247;BME280;16272;48.188;9.964;2023-02-10T05:24:16;97666.91;;;-7.05;79.09
29247;BME280;16272;48.188;9.964;2023-02-10T05:26:42;97666.91;;;-6.77;76.68
29247;BME280;16272;48.188;9.964;2023-02-10T05:29:07;97660.91;;;-6.72;76.83
29247;BME280;16272;48.188;9.964;2023-02-10T05:31:33;97666.06;;;-6.73;76.99
29247;BME280;16272;48.188;9.964;2023-02-10T05:33:58;97664.34;;;-6.68;76.32
29247;BME280;16272;48.188;9.964;2023-02-10T05:36:23;97667.78;;;-6.75;77.08
29247;BME280;16272;48.188;9.964;2023-02-10T05:38:49;97666.94;;;-6.84;77.00
29247;BME280;16272;48.188;9.964;2023-02-10T05:41:33;97674.66;;;-7.21;78.72
29247;BME280;16272;48.188;9.964;2023-02-10T05:43:58;97672.06;;;-7.19;79.44
29247;BME280;16272;48.188;9.964;2023-02-10T05:46:23;97672.06;;;-7.00;78.35
29247;BME280;16272;48.188;9.964;2023-02-10T05:48:49;97674.69;;;-7.08;78.54
29247;BME280;16272;48.188;9.964;2023-02-10T05:51:14;97680.69;;;-6.86;77.80
29247;BME280;16272;48.188;9.964;2023-02-10T05:53:40;97685.00;;;-6.68;76.28
29247;BME280;16272;48.188;9.964;2023-02-10T05:56:05;97685.00;;;-6.71;75.90
29247;BME280;16272;48.188;9.964;2023-02-10T05:58:31;97685.88;;;-6.61;75.01
29247;BME280;16272;48.188;9.964;2023-02-10T06:00:58;97694.47;;;-6.79;75.24
29247;BME280;16272;48.188;9.964;2023-02-10T06:03:24;97699.63;;;-7.09;76.84
29247;BME280;16272;48.188;9.964;2023-02-10T06:05:49;97700.50;;;-6.90;76.92
29247;BME280;16272;48.188;9.964;2023-02-10T06:08:14;97704.81;;;-6.89;76.89
29247;BME280;16272;48.188;9.964;2023-02-10T06:10:40;97704.78;;;-7.21;78.53
29247;BME280;16272;48.188;9.964;2023-02-10T06:13:05;97712.56;;;-7.01;77.48
29247;BME280;16272;48.188;9.964;2023-02-10T06:15:30;97718.53;;;-7.24;78.38
29247;BME280;16272;48.188;9.964;2023-02-10T06:17:55;97709.97;;;-7.01;77.79
29247;BME280;16272;48.188;9.964;2023-02-10T06:20:21;97714.22;;;-7.17;78.04
29247;BME280;16272;48.188;9.964;2023-02-10T06:22:46;97720.31;;;-6.78;77.63
29247;BME280;16272;48.188;9.964;2023-02-10T06:25:11;97717.69;;;-7.16;77.31
29247;BME280;16272;48.188;9.964;2023-02-10T06:27:36;97717.75;;;-6.72;76.58
29247;BME280;16272;48.188;9.964;2023-02-10T06:30:02;97728.94;;;-6.70;75.72
29247;BME280;16272;48.188;9.964;2023-02-10T06:32:27;97736.72;;;-6.62;76.32
29247;BME280;16272;48.188;9.964;2023-02-10T06:34:53;97725.50;;;-6.70;75.64
29247;BME280;16272;48.188;9.964;2023-02-10T06:37:18;97734.13;;;-6.67;75.92
29247;BME280;16272;48.188;9.964;2023-02-10T06:39:43;97737.53;;;-6.71;75.29
29247;BME280;16272;48.188;9.964;2023-02-10T06:42:09;97734.09;;;-6.90;76.20
29247;BME280;16272;48.188;9.964;2023-02-10T06:44:34;97737.50;;;-6.95;76.42
29247;BME280;16272;48.188;9.964;2023-02-10T06:46:59;97729.78;;;-6.86;75.99
29247;BME280;16272;48.188;9.964;2023-02-10T06:49:25;97735.81;;;-6.79;76.90
29247;BME280;16272;48.188;9.964;2023-02-10T06:51:50;97741.00;;;-6.53;76.71
29247;BME280;16272;48.188;9.964;2023-02-10T06:54:15;97738.41;;;-6.24;75.73
29247;BME280;16272;48.188;9.964;2023-02-10T06:56:41;97738.41;;;-6.15;75.44
29247;BME280;16272;48.188;9.964;2023-02-10T06:59:07;97738.31;;;-5.87;75.29
29247;BME280;16272;48.188;9.964;2023-02-10T07:01:32;97740.00;;;-5.75;75.07
29247;BME280;16272;48.188;9.964;2023-02-10T07:03:57;97747.72;;;-5.61;74.52
29247;BME280;16272;48.188;9.964;2023-02-10T07:06:23;97746.66;;;-5.14;73.35
29247;BME280;16272;48.188;9.964;2023-02-10T07:08:48;97751.09;;;-5.41;73.89
29247;BME280;16272;48.188;9.964;2023-02-10T07:11:15;97751.66;;;-4.78;72.97
29247;BME280;16272;48.188;9.964;2023-02-10T07:13:41;97749.13;;;-4.91;72.63
29247;BME280;16272;48.188;9.964;2023-02-10T07:16:07;97760.41;;;-4.96;72.52
29247;BME280;16272;48.188;9.964;2023-02-10T07:18:35;97754.25;;;-4.83;72.93
29247;BME280;16272;48.188;9.964;2023-02-10T07:21:00;97757.34;;;-4.35;72.07
29247;BME280;16272;48.188;9.964;2023-02-10T07:23:25;97746.09;;;-3.44;68.17
29247;BME280;16272;48.188;9.964;2023-02-10T07:25:51;97750.53;;;-3.54;67.95
29247;BME280;16272;48.188;9.964;2023-02-10T07:28:16;97750.59;;;-3.60;68.79
29247;BME280;16272;48.188;9.964;2023-02-10T07:30:41;97753.25;;;-3.67;70.02
29247;BME280;16272;48.188;9.964;2023-02-10T07:33:07;97760.38;;;-3.85;69.60
29247;BME280;16272;48.188;9.964;2023-02-10T07:35:32;97758.47;;;-3.69;70.58
29247;BME280;16272;48.188;9.964;2023-02-10T07:37:57;97761.75;;;-3.50;70.43
29247;BME280;16272;48.188;9.964;2023-02-10T07:40:23;97761.72;;;-2.79;68.24
29247;BME280;16272;48.188;9.964;2023-02-10T07:42:48;97769.00;;;-1.90;66.71
29247;BME280;16272;48.188;9.964;2023-02-10T07:45:14;97771.53;;;-1.39;64.54
29247;BME280;16272;48.188;9.964;2023-02-10T07:47:39;97762.72;;;-0.91;63.19
29247;BME280;16272;48.188;9.964;2023-02-10T07:50:05;97773.91;;;-1.28;62.47
29247;BME280;16272;48.188;9.964;2023-02-10T07:52:30;97784.13;;;-1.62;64.00
29247;BME280;16272;48.188;9.964;2023-02-10T07:54:55;97776.19;;;-1.11;63.85
29247;BME280;16272;48.188;9.964;2023-02-10T07:57:21;97772.75;;;-1.57;66.51
29247;BME280;16272;48.188;9.964;2023-02-10T07:59:47;97779.28;;;-0.94;65.95
29247;BME280;16272;48.188;9.964;2023-02-10T08:02:12;97772.50;;;-0.60;62.93
29247;BME280;16272;48.188;9.964;2023-02-10T08:04:38;97771.59;;;0.47;62.64
29247;BME280;16272;48.188;9.964;2023-02-10T08:07:03;97763.78;;;1.38;58.86
29247;BME280;16272;48.188;9.964;2023-02-10T08:09:28;97777.13;;;0.02;62.58
29247;BME280;16272;48.188;9.964;2023-02-10T08:11:54;97768.63;;;1.22;60.79
29247;BME280;16272;48.188;9.964;2023-02-10T08:14:19;97768.22;;;2.45;56.67
29247;BME280;16272;48.188;9.964;2023-02-10T08:16:44;97769.78;;;2.24;57.11
29247;BME280;16272;48.188;9.964;2023-02-10T08:19:10;97767.38;;;2.43;57.11
29247;BME280;16272;48.188;9.964;2023-02-10T08:21:35;97759.84;;;3.53;54.21
29247;BME280;16272;48.188;9.964;2023-02-10T08:24:00;97753.78;;;4.38;51.61
29247;BME280;16272;48.188;9.964;2023-02-10T08:26:26;97752.25;;;4.12;53.38
29247;BME280;16272;48.188;9.964;2023-02-10T08:28:52;97749.44;;;4.37;52.61
29247;BME280;16272;48.188;9.964;2023-02-10T08:31:20;97760.75;;;4.39;53.34
29247;BME280;16272;48.188;9.964;2023-02-10T08:33:46;97749.22;;;5.78;48.60
29247;BME280;16272;48.188;9.964;2023-02-10T08:36:13;97753.09;;;5.32;51.40
29247;BME280;16272;48.188;9.964;2023-02-10T08:38:39;97744.50;;;5.29;49.60
29247;BME280;16272;48.188;9.964;2023-02-10T08:41:05;97754.03;;;4.73;52.51
29247;BME280;16272;48.188;9.964;2023-02-10T08:43:31;97754.47;;;3.78;54.25
29247;BME280;16272;48.188;9.964;2023-02-10T08:45:58;97761.59;;;3.30;56.68
29247;BME280;16272;48.188;9.964;2023-02-10T08:48:24;97770.47;;;0.58;61.46
29247;BME280;16272;48.188;9.964;2023-02-10T08:50:49;97777.44;;;0.88;64.64
29247;BME280;16272;48.188;9.964;2023-02-10T08:53:15;97776.47;;;1.22;64.23
29247;BME280;16272;48.188;9.964;2023-02-10T08:55:41;97775.44;;;0.67;65.90
29247;BME280;16272;48.188;9.964;2023-02-10T08:58:06;97773.19;;;1.16;65.94
29247;BME280;16272;48.188;9.964;2023-02-10T09:00:32;97768.41;;;1.00;66.65
29247;BME280;16272;48.188;9.964;2023-02-10T09:02:57;97774.91;;;0.54;66.82
29247;BME280;16272;48.188;9.964;2023-02-10T09:05:23;97775.28;;;1.62;65.89
29247;BME280;16272;48.188;9.964;2023-02-10T09:07:48;97775.97;;;2.21;64.55
29247;BME280;16272;48.188;9.964;2023-02-10T09:10:14;97782.22;;;2.44;63.22
29247;BME280;16272;48.188;9.964;2023-02-10T09:12:41;97784.50;;;1.16;61.94
29247;BME280;16272;48.188;9.964;2023-02-10T09:15:08;97778.88;;;2.13;64.98
29247;BME280;16272;48.188;9.964;2023-02-10T09:17:34;97779.75;;;2.39;63.47
29247;BME280;16272;48.188;9.964;2023-02-10T09:19:59;97775.69;;;1.77;64.75
29247;BME280;16272;48.188;9.964;2023-02-10T09:22:24;97779.19;;;1.47;66.29
29247;BME280;16272;48.188;9.964;2023-02-10T09:24:50;97781.31;;;2.70;61.81
29247;BME280;16272;48.188;9.964;2023-02-10T09:27:18;97781.22;;;2.73;61.37
29247;BME280;16272;48.188;9.964;2023-02-10T09:29:43;97781.78;;;2.81;61.92
29247;BME280;16272;48.188;9.964;2023-02-10T09:32:09;97776.06;;;2.70;62.11
29247;BME280;16272;48.188;9.964;2023-02-10T09:34:34;97777.81;;;2.44;64.37
29247;BME280;16272;48.188;9.964;2023-02-10T09:36:59;97768.56;;;3.31;63.28
29247;BME280;16272;48.188;9.964;2023-02-10T09:39:28;97778.25;;;2.32;61.84
29247;BME280;16272;48.188;9.964;2023-02-10T09:42:01;97786.63;;;2.43;65.28
29247;BME280;16272;48.188;9.964;2023-02-10T09:44:34;97780.72;;;3.34;63.39
29247;BME280;16272;48.188;9.964;2023-02-10T09:47:24;97779.13;;;3.06;60.05
29247;BME280;16272;48.188;9.964;2023-02-10T09:53:01;97783.81;;;3.22;61.17
29247;BME280;16272;48.188;9.964;2023-02-10T09:55:32;97780.72;;;2.36;62.66
29247;BME280;16272;48.188;9.964;2023-02-10T09:58:03;97777.09;;;3.82;61.88
29247;BME280;16272;48.188;9.964;2023-02-10T10:00:40;97783.06;;;3.64;60.37
29247;BME280;16272;48.188;9.964;2023-02-10T10:03:10;97779.59;;;3.41;61.11
29247;BME280;16272;48.188;9.964;2023-02-10T10:06:02;97779.47;;;3.89;57.52
29247;BME280;16272;48.188;9.964;2023-02-10T10:08:48;97774.84;;;4.58;58.84
29247;BME280;16272;48.188;9.964;2023-02-10T10:11:25;97778.94;;;4.02;59.81
29247;BME280;16272;48.188;9.964;2023-02-10T10:13:52;97771.81;;;4.27;60.32
29247;BME280;16272;48.188;9.964;2023-02-10T10:16:32;97771.94;;;4.23;61.78
29247;BME280;16272;48.188;9.964;2023-02-10T10:30:25;97765.47;;;4.10;58.62
29247;BME280;16272;48.188;9.964;2023-02-10T10:32:59;97760.38;;;4.48;57.88
29247;BME280;16272;48.188;9.964;2023-02-10T10:35:34;97766.25;;;4.33;57.84
29247;BME280;16272;48.188;9.964;2023-02-10T10:38:21;97756.34;;;4.19;59.22
29247;BME280;16272;48.188;9.964;2023-02-10T10:40:49;97750.56;;;5.12;58.77
29247;BME280;16272;48.188;9.964;2023-02-10T10:43:21;97745.56;;;4.66;57.13
29247;BME280;16272;48.188;9.964;2023-02-10T10:45:51;97754.81;;;4.95;56.43
29247;BME280;16272;48.188;9.964;2023-02-10T10:48:20;97745.66;;;5.23;54.96
29247;BME280;16272;48.188;9.964;2023-02-10T10:50:55;97747.56;;;5.39;53.71
29247;BME280;16272;48.188;9.964;2023-02-10T10:56:40;97744.56;;;5.27;53.34
29247;BME280;16272;48.188;9.964;2023-02-10T10:59:18;97744.13;;;4.99;52.16
29247;BME280;16272;48.188;9.964;2023-02-10T11:01:47;97734.97;;;4.27;53.29
29247;BME280;16272;48.188;9.964;2023-02-10T11:04:16;97731.38;;;5.27;52.81
29247;BME280;16272;48.188;9.964;2023-02-10T11:06:45;97730.13;;;5.17;52.85
29247;BME280;16272;48.188;9.964;2023-02-10T11:11:54;97718.94;;;5.12;52.85
29247;BME280;16272;48.188;9.964;2023-02-10T11:14:26;97720.88;;;4.69;52.45
29247;BME280;16272;48.188;9.964;2023-02-10T11:16:54;97714.94;;;5.22;53.00
29247;BME280;16272;48.188;9.964;2023-02-10T11:19:27;97718.13;;;5.10;49.96
29247;BME280;16272;48.188;9.964;2023-02-10T11:21:54;97708.03;;;5.39;49.68
29247;BME280;16272;48.188;9.964;2023-02-10T11:24:33;97715.59;;;5.83;52.15
29247;BME280;16272;48.188;9.964;2023-02-10T11:27:14;97709.53;;;5.25;51.50
29247;BME280;16272;48.188;9.964;2023-02-10T11:29:59;97703.97;;;4.93;51.55
29247;BME280;16272;48.188;9.964;2023-02-10T11:32:30;97701.41;;;5.11;52.23
29247;BME280;16272;48.188;9.964;2023-02-10T11:34:59;97705.31;;;5.77;52.85
29247;BME280;16272;48.188;9.964;2023-02-10T11:37:30;97702.69;;;5.59;50.31
29247;BME280;16272;48.188;9.964;2023-02-10T11:39:58;97696.34;;;5.81;50.96
29247;BME280;16272;48.188;9.964;2023-02-10T11:42:30;97700.13;;;5.75;51.24
29247;BME280;16272;48.188;9.964;2023-02-10T11:45:19;97686.03;;;5.02;47.86
29247;BME280;16272;48.188;9.964;2023-02-10T11:47:45;97685.72;;;5.46;50.08
29247;BME280;16272;48.188;9.964;2023-02-10T11:50:22;97683.28;;;5.60;49.32
29247;BME280;16272;48.188;9.964;2023-02-10T11:52:47;97674.09;;;5.86;50.55
29247;BME280;16272;48.188;9.964;2023-02-10T11:55:14;97683.63;;;5.16;51.95
29247;BME280;16272;48.188;9.964;2023-02-10T12:00:57;97678.13;;;5.40;51.34
29247;BME280;16272;48.188;9.964;2023-02-10T12:03:41;97675.25;;;5.81;50.02
29247;BME280;16272;48.188;9.964;2023-02-10T12:06:33;97669.31;;;6.12;51.85
29247;BME280;16272;48.188;9.964;2023-02-10T12:17:45;97665.38;;;5.30;52.40
29247;BME280;16272;48.188;9.964;2023-02-10T12:20:38;97669.41;;;5.38;51.18
29247;BME280;16272;48.188;9.964;2023-02-10T12:23:36;97659.97;;;5.33;51.95
29247;BME280;16272;48.188;9.964;2023-02-10T12:28:39;97654.97;;;5.46;51.00
29247;BME280;16272;48.188;9.964;2023-02-10T12:31:23;97649.22;;;6.10;52.29
29247;BME280;16272;48.188;9.964;2023-02-10T12:42:49;97649.03;;;5.78;49.85
29247;BME280;16272;48.188;9.964;2023-02-10T12:45:32;97647.56;;;6.24;50.09
29247;BME280;16272;48.188;9.964;2023-02-10T12:51:35;97643.78;;;5.95;51.16
29247;BME280;16272;48.188;9.964;2023-02-10T12:57:24;97639.63;;;6.09;50.45
29247;BME280;16272;48.188;9.964;2023-02-10T13:02:57;97638.94;;;6.38;48.81
29247;BME280;16272;48.188;9.964;2023-02-10T13:05:33;97638.81;;;6.24;50.17
29247;BME280;16272;48.188;9.964;2023-02-10T13:08:01;97637.06;;;5.70;50.22
29247;BME280;16272;48.188;9.964;2023-02-10T13:10:37;97633.22;;;5.78;51.66
29247;BME280;16272;48.188;9.964;2023-02-10T13:13:27;97633.78;;;6.19;49.76
29247;BME280;16272;48.188;9.964;2023-02-10T13:16:04;97630.13;;;6.04;50.84
29247;BME280;16272;48.188;9.964;2023-02-10T13:18:33;97622.81;;;6.44;50.09
29247;BME280;16272;48.188;9.964;2023-02-10T13:21:06;97623.81;;;6.24;52.17
29247;BME280;16272;48.188;9.964;2023-02-10T13:23:49;97633.06;;;6.33;50.85
29247;BME280;16272;48.188;9.964;2023-02-10T13:32:10;97630.28;;;6.01;51.98
29247;BME280;16272;48.188;9.964;2023-02-10T13:34:49;97641.81;;;5.81;50.20
29247;BME280;16272;48.188;9.964;2023-02-10T13:37:28;97641.09;;;5.60;51.37
29247;BME280;16272;48.188;9.964;2023-02-10T13:39:58;97634.44;;;5.70;52.07
29247;BME280;16272;48.188;9.964;2023-02-10T13:42:30;97636.88;;;5.93;52.60
29247;BME280;16272;48.188;9.964;2023-02-10T13:47:34;97628.03;;;6.11;51.39
29247;BME280;16272;48.188;9.964;2023-02-10T13:50:15;97630.75;;;6.60;50.41
29247;BME280;16272;48.188;9.964;2023-02-10T13:53:05;97632.72;;;6.39;50.92
29247;BME280;16272;48.188;9.964;2023-02-10T13:58:16;97629.28;;;6.55;49.75
29247;BME280;16272;48.188;9.964;2023-02-10T14:00:45;97622.09;;;6.41;48.70
29247;BME280;16272;48.188;9.964;2023-02-10T14:05:38;97626.22;;;6.29;50.20
29247;BME280;16272;48.188;9.964;2023-02-10T14:08:36;97626.88;;;5.99;49.63
29247;BME280;16272;48.188;9.964;2023-02-10T14:14:20;97624.72;;;6.07;49.78
29247;BME280;16272;48.188;9.964;2023-02-10T14:16:49;97634.50;;;6.05;49.81
29247;BME280;16272;48.188;9.964;2023-02-10T14:19:31;97634.59;;;5.85;50.10
29247;BME280;16272;48.188;9.964;2023-02-10T14:21:59;97639.72;;;5.88;49.79
29247;BME280;16272;48.188;9.964;2023-02-10T14:24:31;97637.41;;;5.82;50.78
29247;BME280;16272;48.188;9.964;2023-02-10T14:27:01;97633.38;;;5.75;50.65
29247;BME280;16272;48.188;9.964;2023-02-10T14:29:28;97640.63;;;6.23;50.10
29247;BME280;16272;48.188;9.964;2023-02-10T14:31:57;97632.09;;;6.01;50.63
29247;BME280;16272;48.188;9.964;2023-02-10T14:34:27;97637.41;;;5.82;50.33
29247;BME280;16272;48.188;9.964;2023-02-10T14:36:55;97634.41;;;6.07;50.32
29247;BME280;16272;48.188;9.964;2023-02-10T14:39:22;97631.78;;;6.07;49.27